ETD622 OMAA-FSIA
Flight info
| Callsign | ETD622 |
|---|---|
| Flight time | N/A |
| Altitude | 35000 |
| Route | KANIP MOGOK HAI 1856E DAPAB BOTEM SUHIL AMPEX IMKOT GILID UDLET UTALI |
| Aircraft | A320/M-S/C |
Departure
| Time | N/A |
|---|---|
| Airport | Zayed International Airport (OMAA) |
Arrival
| Time | 2026-05-05 10:30 |
|---|---|
| Airport | Seychelles International Airport (FSIA) |
| Time | Latitude | Longitude | Altitude | Speed | Heading |
|---|---|---|---|---|---|
| 2026-05-05 06:40 | 23.02019 | 56.03077 | 29811 ft | 484 kts | 155° |
| 2026-05-05 06:40 | 22.96107 | 56.06542 | 29810 ft | 483 kts | 155° |
| 2026-05-05 06:41 | 22.90187 | 56.10009 | 29810 ft | 483 kts | 155° |
| 2026-05-05 06:41 | 22.84277 | 56.13466 | 29809 ft | 482 kts | 155° |
| 2026-05-05 06:42 | 22.78372 | 56.16916 | 29809 ft | 482 kts | 155° |
| 2026-05-05 06:42 | 22.72464 | 56.20365 | 29808 ft | 481 kts | 155° |
| 2026-05-05 06:43 | 22.66561 | 56.23808 | 29808 ft | 481 kts | 155° |
| 2026-05-05 06:43 | 22.61135 | 56.26969 | 29808 ft | 481 kts | 155° |
| 2026-05-05 06:44 | 22.55243 | 56.30398 | 29808 ft | 481 kts | 155° |
| 2026-05-05 06:44 | 22.49347 | 56.33827 | 29808 ft | 480 kts | 155° |
| 2026-05-05 06:45 | 22.43460 | 56.37247 | 29808 ft | 480 kts | 155° |
| 2026-05-05 06:45 | 22.37569 | 56.40665 | 29808 ft | 480 kts | 155° |
| 2026-05-05 06:46 | 22.31680 | 56.44080 | 29808 ft | 480 kts | 155° |
| 2026-05-05 06:46 | 22.25820 | 56.47474 | 29808 ft | 480 kts | 155° |
| 2026-05-05 06:47 | 22.19925 | 56.50885 | 29816 ft | 480 kts | 155° |
| 2026-05-05 06:47 | 22.14031 | 56.54293 | 29817 ft | 480 kts | 155° |
| 2026-05-05 06:48 | 22.08139 | 56.57695 | 29817 ft | 480 kts | 155° |
| 2026-05-05 06:48 | 22.02247 | 56.61095 | 29817 ft | 480 kts | 155° |
| 2026-05-05 06:49 | 21.96349 | 56.64495 | 29796 ft | 479 kts | 155° |
| 2026-05-05 06:49 | 21.90459 | 56.67883 | 29791 ft | 480 kts | 156° |
| 2026-05-05 06:49 | 21.87380 | 56.69201 | 29790 ft | 474 kts | 167° |
| 2026-05-05 06:50 | 21.84146 | 56.69796 | 29791 ft | 469 kts | 179° |
| 2026-05-05 06:50 | 21.80945 | 56.69660 | 29792 ft | 464 kts | 191° |
| 2026-05-05 06:50 | 21.77765 | 56.69086 | 29795 ft | 464 kts | 191° |
| 2026-05-05 06:51 | 21.71419 | 56.67819 | 29794 ft | 463 kts | 194° |
| 2026-05-05 06:51 | 21.65118 | 56.66395 | 29812 ft | 463 kts | 194° |
| 2026-05-05 06:52 | 21.58819 | 56.64954 | 29817 ft | 463 kts | 195° |
| 2026-05-05 06:52 | 21.52508 | 56.63505 | 29818 ft | 463 kts | 195° |
| 2026-05-05 06:53 | 21.46242 | 56.62065 | 29818 ft | 463 kts | 195° |
| 2026-05-05 06:53 | 21.39941 | 56.60617 | 29818 ft | 463 kts | 195° |
| 2026-05-05 06:54 | 21.33635 | 56.59167 | 29818 ft | 463 kts | 194° |
| 2026-05-05 06:54 | 21.27326 | 56.57718 | 29818 ft | 462 kts | 194° |
| 2026-05-05 06:55 | 21.21046 | 56.56276 | 29819 ft | 461 kts | 194° |
| 2026-05-05 06:55 | 21.14765 | 56.54835 | 29819 ft | 461 kts | 194° |
| 2026-05-05 06:56 | 21.08531 | 56.53406 | 29819 ft | 461 kts | 194° |
| 2026-05-05 06:56 | 21.02241 | 56.51965 | 29819 ft | 462 kts | 194° |
| 2026-05-05 06:57 | 20.95956 | 56.50526 | 29820 ft | 462 kts | 194° |
| 2026-05-05 06:57 | 20.89670 | 56.49089 | 29820 ft | 461 kts | 194° |
| 2026-05-05 06:58 | 20.83386 | 56.47653 | 29820 ft | 462 kts | 194° |
| 2026-05-05 06:58 | 20.77089 | 56.46216 | 29820 ft | 462 kts | 194° |
| 2026-05-05 06:59 | 20.70832 | 56.44789 | 29820 ft | 462 kts | 194° |
| 2026-05-05 06:59 | 20.64537 | 56.43354 | 29820 ft | 462 kts | 194° |
| 2026-05-05 07:00 | 20.58246 | 56.41922 | 29820 ft | 462 kts | 194° |
| 2026-05-05 07:00 | 20.53015 | 56.40732 | 29820 ft | 462 kts | 194° |
| 2026-05-05 07:01 | 20.46728 | 56.39302 | 29820 ft | 462 kts | 194° |
| 2026-05-05 07:01 | 20.40443 | 56.37875 | 29820 ft | 462 kts | 194° |
| 2026-05-05 07:02 | 20.34149 | 56.36447 | 29821 ft | 461 kts | 194° |
| 2026-05-05 07:02 | 20.27870 | 56.35023 | 29821 ft | 461 kts | 194° |
| 2026-05-05 07:03 | 20.21592 | 56.33601 | 29821 ft | 461 kts | 194° |
| 2026-05-05 07:03 | 20.15348 | 56.32187 | 29821 ft | 462 kts | 194° |
| 2026-05-05 07:04 | 20.09056 | 56.30765 | 29821 ft | 462 kts | 194° |
| 2026-05-05 07:04 | 20.02776 | 56.29346 | 29821 ft | 462 kts | 194° |
| 2026-05-05 07:05 | 19.96480 | 56.27979 | 29821 ft | 462 kts | 191° |
| 2026-05-05 07:05 | 19.90100 | 56.27049 | 29821 ft | 462 kts | 189° |
| 2026-05-05 07:06 | 19.83724 | 56.26142 | 29822 ft | 462 kts | 189° |
| 2026-05-05 07:06 | 19.77336 | 56.25229 | 29822 ft | 462 kts | 189° |
| 2026-05-05 07:07 | 19.70991 | 56.24320 | 29822 ft | 462 kts | 189° |
| 2026-05-05 07:07 | 19.64602 | 56.23403 | 29821 ft | 463 kts | 189° |
| 2026-05-05 07:08 | 19.58216 | 56.22488 | 29822 ft | 463 kts | 189° |
| 2026-05-05 07:08 | 19.51826 | 56.21571 | 29823 ft | 463 kts | 189° |
| 2026-05-05 07:09 | 19.45436 | 56.20655 | 29825 ft | 463 kts | 189° |
| 2026-05-05 07:09 | 19.39046 | 56.19740 | 29826 ft | 464 kts | 189° |
| 2026-05-05 07:10 | 19.32650 | 56.18823 | 29827 ft | 464 kts | 189° |
| 2026-05-05 07:10 | 19.26281 | 56.17912 | 29827 ft | 464 kts | 189° |
| 2026-05-05 07:11 | 19.19885 | 56.16997 | 29828 ft | 463 kts | 189° |
| 2026-05-05 07:11 | 19.13493 | 56.16084 | 29828 ft | 463 kts | 189° |
| 2026-05-05 07:12 | 19.07102 | 56.15171 | 29829 ft | 463 kts | 189° |
| 2026-05-05 07:12 | 19.00709 | 56.14258 | 29829 ft | 464 kts | 189° |
| 2026-05-05 07:13 | 18.94304 | 56.13345 | 29830 ft | 464 kts | 189° |
| 2026-05-05 07:13 | 18.87940 | 56.12438 | 29831 ft | 463 kts | 189° |
| 2026-05-05 07:14 | 18.81537 | 56.11526 | 29832 ft | 464 kts | 189° |
| 2026-05-05 07:14 | 18.75138 | 56.10616 | 29833 ft | 464 kts | 189° |
| 2026-05-05 07:15 | 18.68741 | 56.09707 | 29834 ft | 464 kts | 189° |
| 2026-05-05 07:15 | 18.62341 | 56.08798 | 29835 ft | 464 kts | 189° |
| 2026-05-05 07:16 | 18.55948 | 56.07891 | 29836 ft | 464 kts | 189° |
| 2026-05-05 07:16 | 18.49557 | 56.06984 | 29836 ft | 461 kts | 189° |
| 2026-05-05 07:17 | 18.43211 | 56.06085 | 29838 ft | 460 kts | 189° |
| 2026-05-05 07:17 | 18.36889 | 56.05190 | 29839 ft | 461 kts | 188° |
| 2026-05-05 07:18 | 18.30526 | 56.04290 | 29840 ft | 461 kts | 188° |
| 2026-05-05 07:18 | 18.24172 | 56.03391 | 29841 ft | 461 kts | 188° |
| 2026-05-05 07:19 | 18.17817 | 56.02494 | 29847 ft | 460 kts | 188° |
| 2026-05-05 07:19 | 18.14634 | 56.02044 | 30064 ft | 462 kts | 188° |
| 2026-05-05 07:19 | 18.11446 | 56.01594 | 30362 ft | 462 kts | 188° |
| 2026-05-05 07:19 | 18.08249 | 56.01143 | 30561 ft | 465 kts | 188° |
| 2026-05-05 07:20 | 18.05043 | 56.00691 | 30777 ft | 466 kts | 188° |
| 2026-05-05 07:20 | 18.01821 | 56.00236 | 30958 ft | 468 kts | 188° |
| 2026-05-05 07:20 | 17.98609 | 55.99686 | 31233 ft | 467 kts | 192° |
| 2026-05-05 07:20 | 17.95470 | 55.99020 | 31549 ft | 466 kts | 192° |
| 2026-05-05 07:21 | 17.92250 | 55.98322 | 31839 ft | 465 kts | 192° |
| 2026-05-05 07:21 | 17.89118 | 55.97643 | 32124 ft | 465 kts | 192° |
| 2026-05-05 07:21 | 17.85950 | 55.96955 | 32378 ft | 465 kts | 192° |
| 2026-05-05 07:21 | 17.82788 | 55.96269 | 32667 ft | 465 kts | 192° |
| 2026-05-05 07:22 | 17.79606 | 55.95579 | 32802 ft | 467 kts | 192° |
| 2026-05-05 07:22 | 17.73257 | 55.94203 | 32847 ft | 464 kts | 192° |
| 2026-05-05 07:23 | 17.66946 | 55.92836 | 32851 ft | 463 kts | 192° |
| 2026-05-05 07:23 | 17.60629 | 55.91468 | 32852 ft | 463 kts | 192° |
| 2026-05-05 07:24 | 17.54304 | 55.90099 | 32854 ft | 464 kts | 192° |
| 2026-05-05 07:24 | 17.47974 | 55.88730 | 32855 ft | 464 kts | 192° |
| 2026-05-05 07:25 | 17.41649 | 55.87363 | 32856 ft | 464 kts | 192° |
| 2026-05-05 07:25 | 17.35318 | 55.85996 | 32857 ft | 464 kts | 192° |
| 2026-05-05 07:26 | 17.29018 | 55.84636 | 32859 ft | 466 kts | 192° |
| 2026-05-05 07:26 | 17.22679 | 55.83270 | 32858 ft | 465 kts | 192° |
| 2026-05-05 07:27 | 17.16338 | 55.81903 | 32859 ft | 466 kts | 192° |
| 2026-05-05 07:27 | 17.09988 | 55.80536 | 32860 ft | 465 kts | 192° |
| 2026-05-05 07:28 | 17.03631 | 55.79168 | 32860 ft | 466 kts | 192° |
| 2026-05-05 07:28 | 16.97274 | 55.77801 | 32865 ft | 467 kts | 192° |
| 2026-05-05 07:29 | 16.90892 | 55.76430 | 32866 ft | 467 kts | 192° |
| 2026-05-05 07:29 | 16.84526 | 55.75064 | 32867 ft | 467 kts | 192° |
| 2026-05-05 07:30 | 16.78156 | 55.73697 | 32867 ft | 468 kts | 192° |
| 2026-05-05 07:30 | 16.68583 | 55.71645 | 32856 ft | 468 kts | 192° |
| 2026-05-05 07:31 | 16.62237 | 55.70287 | 32846 ft | 468 kts | 192° |
| 2026-05-05 07:31 | 16.55838 | 55.68917 | 32846 ft | 469 kts | 192° |
| 2026-05-05 07:32 | 16.49449 | 55.67551 | 32846 ft | 469 kts | 192° |
| 2026-05-05 07:32 | 16.43045 | 55.66182 | 32846 ft | 469 kts | 192° |
| 2026-05-05 07:33 | 16.36712 | 55.64830 | 32846 ft | 469 kts | 192° |
| 2026-05-05 07:33 | 16.30307 | 55.63463 | 32846 ft | 469 kts | 192° |
| 2026-05-05 07:34 | 16.23908 | 55.62099 | 32847 ft | 470 kts | 192° |
| 2026-05-05 07:34 | 16.17501 | 55.60733 | 32847 ft | 470 kts | 192° |
| 2026-05-05 07:35 | 16.11101 | 55.59370 | 32847 ft | 470 kts | 192° |
| 2026-05-05 07:35 | 16.04700 | 55.58008 | 32843 ft | 470 kts | 192° |
| 2026-05-05 07:36 | 15.98289 | 55.56644 | 32839 ft | 470 kts | 191° |
| 2026-05-05 07:36 | 15.91887 | 55.55284 | 32838 ft | 470 kts | 191° |
| 2026-05-05 07:37 | 15.85486 | 55.53924 | 32838 ft | 470 kts | 191° |
| 2026-05-05 07:37 | 15.79115 | 55.52572 | 32838 ft | 470 kts | 191° |
| 2026-05-05 07:38 | 15.72712 | 55.51213 | 32838 ft | 470 kts | 191° |
| 2026-05-05 07:38 | 15.66309 | 55.49856 | 32838 ft | 470 kts | 191° |
| 2026-05-05 07:39 | 15.59905 | 55.48499 | 32838 ft | 470 kts | 191° |
| 2026-05-05 07:39 | 15.53488 | 55.47141 | 32837 ft | 470 kts | 191° |
| 2026-05-05 07:40 | 15.47072 | 55.45784 | 32837 ft | 470 kts | 191° |
| 2026-05-05 07:40 | 15.40656 | 55.44427 | 32837 ft | 470 kts | 191° |
| 2026-05-05 07:41 | 15.34252 | 55.43074 | 32837 ft | 470 kts | 191° |
| 2026-05-05 07:41 | 15.27871 | 55.41726 | 32837 ft | 470 kts | 191° |
| 2026-05-05 07:42 | 15.21464 | 55.40374 | 32837 ft | 470 kts | 191° |
| 2026-05-05 07:42 | 15.15008 | 55.39314 | 32837 ft | 470 kts | 186° |
| 2026-05-05 07:43 | 15.08515 | 55.38511 | 32836 ft | 470 kts | 186° |
| 2026-05-05 07:43 | 15.02019 | 55.37708 | 32836 ft | 470 kts | 186° |
| 2026-05-05 07:44 | 14.95511 | 55.36901 | 33077 ft | 470 kts | 186° |
| 2026-05-05 07:44 | 14.92269 | 55.36498 | 33431 ft | 468 kts | 186° |
| 2026-05-05 07:44 | 14.89038 | 55.36097 | 33700 ft | 469 kts | 186° |
| 2026-05-05 07:45 | 14.82544 | 55.35290 | 33826 ft | 469 kts | 186° |
| 2026-05-05 07:45 | 14.76086 | 55.34486 | 33834 ft | 467 kts | 186° |
| 2026-05-05 07:46 | 14.70721 | 55.33818 | 33835 ft | 467 kts | 186° |
| 2026-05-05 07:46 | 14.64270 | 55.33014 | 33834 ft | 467 kts | 186° |
| 2026-05-05 07:47 | 14.57823 | 55.32211 | 33834 ft | 467 kts | 186° |
| 2026-05-05 07:47 | 14.51374 | 55.31408 | 33834 ft | 467 kts | 186° |
| 2026-05-05 07:48 | 14.44923 | 55.30605 | 33833 ft | 467 kts | 186° |
| 2026-05-05 07:48 | 14.38473 | 55.29802 | 33833 ft | 467 kts | 186° |
| 2026-05-05 07:49 | 14.32022 | 55.28999 | 33833 ft | 467 kts | 186° |
| 2026-05-05 07:49 | 14.25565 | 55.28196 | 33832 ft | 467 kts | 186° |
| 2026-05-05 07:50 | 14.19157 | 55.27398 | 33832 ft | 466 kts | 186° |
| 2026-05-05 07:50 | 14.12705 | 55.26597 | 33832 ft | 466 kts | 186° |
| 2026-05-05 07:51 | 14.06253 | 55.25795 | 33832 ft | 467 kts | 186° |
| 2026-05-05 07:51 | 13.99802 | 55.24995 | 33831 ft | 467 kts | 186° |
| 2026-05-05 07:52 | 13.93356 | 55.24194 | 33831 ft | 466 kts | 186° |
| 2026-05-05 07:52 | 13.86951 | 55.23396 | 33831 ft | 466 kts | 186° |
| 2026-05-05 07:53 | 13.80500 | 55.22585 | 33830 ft | 467 kts | 186° |
| 2026-05-05 07:53 | 13.74042 | 55.21773 | 33830 ft | 467 kts | 186° |
| 2026-05-05 07:54 | 13.67602 | 55.20963 | 33830 ft | 467 kts | 186° |
| 2026-05-05 07:54 | 13.61151 | 55.20151 | 33829 ft | 467 kts | 186° |
| 2026-05-05 07:55 | 13.54702 | 55.19340 | 33829 ft | 467 kts | 186° |
| 2026-05-05 07:55 | 13.48260 | 55.18530 | 33829 ft | 467 kts | 186° |
| 2026-05-05 07:56 | 13.41807 | 55.17719 | 33828 ft | 467 kts | 186° |
| 2026-05-05 07:56 | 13.35395 | 55.16913 | 33828 ft | 467 kts | 186° |
| 2026-05-05 07:57 | 13.28951 | 55.16103 | 33827 ft | 466 kts | 186° |
| 2026-05-05 07:57 | 13.22506 | 55.15293 | 33827 ft | 467 kts | 186° |
| 2026-05-05 07:58 | 13.16063 | 55.14485 | 33827 ft | 467 kts | 186° |
| 2026-05-05 07:58 | 13.09617 | 55.13676 | 33826 ft | 467 kts | 186° |
| 2026-05-05 07:59 | 13.03168 | 55.12868 | 33826 ft | 467 kts | 186° |
| 2026-05-05 07:59 | 12.96721 | 55.12060 | 33826 ft | 467 kts | 186° |
| 2026-05-05 08:00 | 12.90270 | 55.11252 | 33825 ft | 467 kts | 186° |
| 2026-05-05 08:00 | 12.83827 | 55.10445 | 33825 ft | 467 kts | 186° |
| 2026-05-05 08:01 | 12.77385 | 55.09639 | 33825 ft | 467 kts | 186° |
| 2026-05-05 08:01 | 12.70980 | 55.08838 | 33824 ft | 467 kts | 186° |
| 2026-05-05 08:02 | 12.64536 | 55.08032 | 33824 ft | 466 kts | 186° |
| 2026-05-05 08:02 | 12.58097 | 55.07227 | 33824 ft | 466 kts | 186° |
| 2026-05-05 08:03 | 12.51654 | 55.06423 | 33824 ft | 466 kts | 186° |
| 2026-05-05 08:03 | 12.45209 | 55.05619 | 33824 ft | 466 kts | 186° |
| 2026-05-05 08:04 | 12.38764 | 55.04815 | 33824 ft | 466 kts | 186° |
| 2026-05-05 08:04 | 12.32327 | 55.04012 | 33823 ft | 466 kts | 186° |
| 2026-05-05 08:05 | 12.25885 | 55.03210 | 33823 ft | 466 kts | 186° |
| 2026-05-05 08:05 | 12.19439 | 55.02407 | 33823 ft | 466 kts | 186° |
| 2026-05-05 08:06 | 12.12992 | 55.01604 | 33823 ft | 466 kts | 186° |
| 2026-05-05 08:06 | 12.06552 | 55.00803 | 33822 ft | 466 kts | 186° |
| 2026-05-05 08:07 | 12.00147 | 55.00030 | 33820 ft | 466 kts | 183° |
| 2026-05-05 08:07 | 11.93677 | 54.99940 | 33822 ft | 465 kts | 179° |
| 2026-05-05 08:08 | 11.87207 | 54.99922 | 33821 ft | 465 kts | 179° |
| 2026-05-05 08:08 | 11.80741 | 54.99916 | 33821 ft | 465 kts | 179° |
| 2026-05-05 08:09 | 11.74261 | 54.99912 | 33821 ft | 465 kts | 179° |
| 2026-05-05 08:09 | 11.67787 | 54.99911 | 33821 ft | 465 kts | 179° |
| 2026-05-05 08:10 | 11.61316 | 54.99911 | 33821 ft | 465 kts | 179° |
| 2026-05-05 08:10 | 11.54851 | 54.99911 | 33820 ft | 465 kts | 179° |
| 2026-05-05 08:11 | 11.48417 | 54.99912 | 33820 ft | 465 kts | 179° |
| 2026-05-05 08:11 | 11.41948 | 54.99913 | 33820 ft | 465 kts | 179° |
| 2026-05-05 08:12 | 11.35480 | 54.99915 | 33820 ft | 465 kts | 179° |
| 2026-05-05 08:12 | 11.29010 | 54.99916 | 33835 ft | 464 kts | 179° |
| 2026-05-05 08:13 | 11.22543 | 54.99917 | 33835 ft | 465 kts | 179° |
| 2026-05-05 08:13 | 11.16073 | 54.99919 | 33821 ft | 465 kts | 179° |
| 2026-05-05 08:14 | 11.09599 | 54.99921 | 33818 ft | 465 kts | 179° |
| 2026-05-05 08:14 | 11.03134 | 54.99922 | 33818 ft | 465 kts | 179° |
| 2026-05-05 08:15 | 10.96661 | 54.99924 | 33818 ft | 465 kts | 179° |
| 2026-05-05 08:15 | 10.90226 | 54.99926 | 33818 ft | 465 kts | 179° |
| 2026-05-05 08:16 | 10.83752 | 54.99927 | 33818 ft | 465 kts | 179° |
| 2026-05-05 08:16 | 10.77282 | 54.99929 | 33819 ft | 464 kts | 179° |
| 2026-05-05 08:17 | 10.70817 | 54.99931 | 33819 ft | 465 kts | 179° |
| 2026-05-05 08:17 | 10.64351 | 54.99932 | 33819 ft | 465 kts | 179° |
| 2026-05-05 08:18 | 10.57918 | 54.99934 | 33819 ft | 465 kts | 179° |
| 2026-05-05 08:18 | 10.51449 | 54.99936 | 33819 ft | 464 kts | 179° |
| 2026-05-05 08:19 | 10.44985 | 54.99937 | 33820 ft | 464 kts | 179° |
| 2026-05-05 08:19 | 10.38510 | 54.99939 | 33820 ft | 464 kts | 179° |
| 2026-05-05 08:20 | 10.32090 | 54.99941 | 33820 ft | 464 kts | 179° |
| 2026-05-05 08:20 | 10.25629 | 54.99943 | 33820 ft | 464 kts | 179° |
| 2026-05-05 08:21 | 10.19169 | 54.99945 | 33821 ft | 464 kts | 179° |
| 2026-05-05 08:21 | 10.12700 | 54.99946 | 33821 ft | 464 kts | 179° |
| 2026-05-05 08:22 | 10.06278 | 54.99948 | 33821 ft | 464 kts | 179° |
| 2026-05-05 08:22 | 9.99811 | 54.99950 | 33822 ft | 464 kts | 179° |
| 2026-05-05 08:23 | 9.93361 | 54.99952 | 33822 ft | 464 kts | 179° |
| 2026-05-05 08:23 | 9.86908 | 54.99954 | 33822 ft | 464 kts | 179° |
| 2026-05-05 08:24 | 9.80453 | 54.99955 | 33822 ft | 464 kts | 179° |
| 2026-05-05 08:24 | 9.73993 | 54.99957 | 33823 ft | 464 kts | 179° |
| 2026-05-05 08:25 | 9.67532 | 54.99959 | 33823 ft | 464 kts | 179° |
| 2026-05-05 08:25 | 9.61077 | 54.99961 | 33823 ft | 464 kts | 179° |
| 2026-05-05 08:26 | 9.54666 | 54.99962 | 33824 ft | 464 kts | 179° |
| 2026-05-05 08:26 | 9.48218 | 54.99964 | 33824 ft | 464 kts | 179° |
| 2026-05-05 08:27 | 9.41761 | 54.99966 | 33824 ft | 463 kts | 179° |
| 2026-05-05 08:27 | 9.35305 | 54.99968 | 33825 ft | 463 kts | 179° |
| 2026-05-05 08:28 | 9.28856 | 54.99969 | 33825 ft | 463 kts | 179° |
| 2026-05-05 08:28 | 9.22400 | 54.99971 | 33825 ft | 463 kts | 179° |
| 2026-05-05 08:29 | 9.15954 | 54.99973 | 33826 ft | 463 kts | 179° |
| 2026-05-05 08:30 | 9.06322 | 54.99975 | 33826 ft | 463 kts | 179° |
| 2026-05-05 08:30 | 8.99878 | 54.99977 | 33827 ft | 463 kts | 179° |
| 2026-05-05 08:31 | 8.93428 | 54.99979 | 33819 ft | 463 kts | 179° |
| 2026-05-05 08:31 | 8.86982 | 54.99981 | 33819 ft | 463 kts | 179° |
| 2026-05-05 08:32 | 8.80530 | 54.99982 | 33819 ft | 463 kts | 179° |
| 2026-05-05 08:32 | 8.74083 | 54.99984 | 33819 ft | 463 kts | 179° |
| 2026-05-05 08:33 | 8.67677 | 54.99986 | 33820 ft | 463 kts | 179° |
| 2026-05-05 08:33 | 8.61233 | 54.99988 | 33820 ft | 463 kts | 179° |
| 2026-05-05 08:34 | 8.54794 | 54.99989 | 33821 ft | 463 kts | 179° |
| 2026-05-05 08:34 | 8.48349 | 54.99991 | 33821 ft | 463 kts | 179° |
| 2026-05-05 08:35 | 8.41905 | 54.99993 | 33821 ft | 463 kts | 179° |
| 2026-05-05 08:35 | 8.35462 | 54.99995 | 33822 ft | 463 kts | 179° |
| 2026-05-05 08:36 | 8.30110 | 54.99996 | 33822 ft | 463 kts | 179° |
| 2026-05-05 08:36 | 8.23656 | 54.99998 | 33823 ft | 463 kts | 179° |
| 2026-05-05 08:37 | 8.17214 | 54.99999 | 33823 ft | 463 kts | 179° |
| 2026-05-05 08:37 | 8.10777 | 55.00000 | 33824 ft | 463 kts | 179° |
| 2026-05-05 08:38 | 8.04322 | 55.00000 | 33824 ft | 463 kts | 179° |
| 2026-05-05 08:38 | 7.97925 | 55.00000 | 33824 ft | 462 kts | 179° |
| 2026-05-05 08:39 | 7.91497 | 55.00000 | 33825 ft | 462 kts | 179° |
| 2026-05-05 08:39 | 7.85075 | 55.00000 | 33826 ft | 462 kts | 179° |
| 2026-05-05 08:40 | 7.78631 | 55.00000 | 33827 ft | 462 kts | 179° |
| 2026-05-05 08:40 | 7.72197 | 55.00000 | 33826 ft | 462 kts | 179° |
| 2026-05-05 08:41 | 7.65754 | 55.00000 | 33827 ft | 462 kts | 179° |
| 2026-05-05 08:41 | 7.59358 | 55.00000 | 33827 ft | 462 kts | 179° |
| 2026-05-05 08:42 | 7.52919 | 55.00000 | 33828 ft | 462 kts | 179° |
| 2026-05-05 08:42 | 7.46487 | 55.00000 | 33828 ft | 462 kts | 179° |
| 2026-05-05 08:43 | 7.40051 | 55.00000 | 33829 ft | 462 kts | 179° |
| 2026-05-05 08:43 | 7.33626 | 55.00000 | 33829 ft | 462 kts | 179° |
| 2026-05-05 08:44 | 7.27197 | 55.00000 | 33830 ft | 462 kts | 179° |
| 2026-05-05 08:44 | 7.20770 | 55.00000 | 33830 ft | 462 kts | 179° |
| 2026-05-05 08:45 | 7.14335 | 55.00000 | 33830 ft | 462 kts | 179° |
| 2026-05-05 08:45 | 7.07944 | 55.00000 | 33831 ft | 462 kts | 179° |
| 2026-05-05 08:46 | 7.01520 | 55.00000 | 34257 ft | 461 kts | 179° |
| 2026-05-05 08:46 | 6.98306 | 55.00000 | 34615 ft | 460 kts | 179° |
| 2026-05-05 08:46 | 6.95095 | 55.00000 | 34776 ft | 463 kts | 179° |
| 2026-05-05 08:47 | 6.88672 | 55.00000 | 34829 ft | 460 kts | 179° |
| 2026-05-05 08:47 | 6.82276 | 55.00000 | 34832 ft | 459 kts | 179° |
| 2026-05-05 08:48 | 6.75887 | 54.99999 | 34834 ft | 459 kts | 179° |
| 2026-05-05 08:48 | 6.69500 | 55.00000 | 34834 ft | 459 kts | 179° |
| 2026-05-05 08:49 | 6.63109 | 55.00000 | 34835 ft | 459 kts | 179° |
| 2026-05-05 08:49 | 6.56728 | 55.00000 | 34835 ft | 459 kts | 179° |
| 2026-05-05 08:50 | 6.50335 | 55.00000 | 34836 ft | 459 kts | 179° |
| 2026-05-05 08:50 | 6.43958 | 55.00000 | 34836 ft | 459 kts | 179° |
| 2026-05-05 08:51 | 6.37568 | 55.00000 | 34837 ft | 459 kts | 179° |
| 2026-05-05 08:51 | 6.31222 | 55.00000 | 34837 ft | 458 kts | 179° |
| 2026-05-05 08:52 | 6.24845 | 55.00000 | 34838 ft | 458 kts | 179° |
| 2026-05-05 08:52 | 6.18466 | 55.00000 | 34838 ft | 458 kts | 179° |
| 2026-05-05 08:53 | 6.12086 | 55.00000 | 34839 ft | 458 kts | 179° |
| 2026-05-05 08:53 | 6.05708 | 55.00000 | 34839 ft | 458 kts | 179° |
| 2026-05-05 08:54 | 5.99326 | 55.00000 | 34840 ft | 458 kts | 179° |
| 2026-05-05 08:54 | 5.92954 | 55.00000 | 34840 ft | 458 kts | 179° |
| 2026-05-05 08:55 | 5.86623 | 55.00000 | 34841 ft | 458 kts | 179° |
| 2026-05-05 08:55 | 5.80242 | 55.00000 | 34841 ft | 458 kts | 179° |
| 2026-05-05 08:56 | 5.73863 | 55.00000 | 34842 ft | 458 kts | 179° |
| 2026-05-05 08:56 | 5.67491 | 54.99999 | 34842 ft | 457 kts | 179° |
| 2026-05-05 08:57 | 5.61121 | 54.99999 | 34843 ft | 457 kts | 179° |
| 2026-05-05 08:57 | 5.54796 | 54.99999 | 34843 ft | 457 kts | 179° |
| 2026-05-05 08:58 | 5.48429 | 54.99999 | 34844 ft | 457 kts | 179° |
| 2026-05-05 08:58 | 5.42062 | 54.99999 | 34844 ft | 457 kts | 179° |
| 2026-05-05 08:59 | 5.35711 | 55.00279 | 34845 ft | 457 kts | 175° |
| 2026-05-05 08:59 | 5.29359 | 55.00747 | 34845 ft | 457 kts | 175° |
| 2026-05-05 09:00 | 5.23014 | 55.01216 | 34846 ft | 457 kts | 175° |
| 2026-05-05 09:00 | 5.16659 | 55.01684 | 34846 ft | 457 kts | 175° |
| 2026-05-05 09:01 | 5.10340 | 55.02149 | 34846 ft | 457 kts | 175° |
| 2026-05-05 09:01 | 5.03996 | 55.02616 | 34847 ft | 457 kts | 175° |
| 2026-05-05 09:02 | 4.97651 | 55.03082 | 34847 ft | 457 kts | 175° |
| 2026-05-05 09:02 | 4.91310 | 55.03547 | 34848 ft | 456 kts | 175° |
| 2026-05-05 09:03 | 4.84962 | 55.04014 | 34848 ft | 457 kts | 175° |
| 2026-05-05 09:03 | 4.78621 | 55.04479 | 34849 ft | 457 kts | 175° |
| 2026-05-05 09:04 | 4.72278 | 55.04944 | 34849 ft | 457 kts | 175° |
| 2026-05-05 09:04 | 4.65938 | 55.05409 | 34850 ft | 457 kts | 175° |
| 2026-05-05 09:05 | 4.59591 | 55.05874 | 34850 ft | 457 kts | 175° |
| 2026-05-05 09:05 | 4.53248 | 55.06339 | 34851 ft | 457 kts | 175° |
| 2026-05-05 09:06 | 4.46936 | 55.06802 | 34855 ft | 458 kts | 175° |
| 2026-05-05 09:06 | 4.40578 | 55.07267 | 34852 ft | 457 kts | 174° |
| 2026-05-05 09:07 | 4.34245 | 55.07731 | 34852 ft | 456 kts | 174° |
| 2026-05-05 09:07 | 4.27904 | 55.08195 | 34856 ft | 457 kts | 174° |
| 2026-05-05 09:08 | 4.21554 | 55.08660 | 34853 ft | 457 kts | 174° |
| 2026-05-05 09:08 | 4.15219 | 55.09123 | 34853 ft | 457 kts | 174° |
| 2026-05-05 09:09 | 4.08872 | 55.09588 | 34853 ft | 457 kts | 174° |
| 2026-05-05 09:09 | 4.02539 | 55.10050 | 34854 ft | 457 kts | 174° |
| 2026-05-05 09:10 | 3.96182 | 55.10515 | 34855 ft | 457 kts | 174° |
| 2026-05-05 09:10 | 3.89874 | 55.10976 | 34855 ft | 457 kts | 174° |
| 2026-05-05 09:11 | 3.83528 | 55.11439 | 34855 ft | 457 kts | 174° |
| 2026-05-05 09:11 | 3.77175 | 55.11904 | 34856 ft | 457 kts | 174° |
| 2026-05-05 09:12 | 3.70822 | 55.12368 | 34856 ft | 457 kts | 174° |
| 2026-05-05 09:12 | 3.64470 | 55.12832 | 34857 ft | 457 kts | 174° |
| 2026-05-05 09:13 | 3.58124 | 55.13296 | 34857 ft | 457 kts | 174° |
| 2026-05-05 09:13 | 3.51773 | 55.13760 | 34857 ft | 457 kts | 174° |
| 2026-05-05 09:14 | 3.45464 | 55.14221 | 34858 ft | 457 kts | 174° |
| 2026-05-05 09:14 | 3.39114 | 55.14684 | 34858 ft | 458 kts | 174° |
| 2026-05-05 09:15 | 3.32763 | 55.15148 | 34858 ft | 457 kts | 174° |
| 2026-05-05 09:15 | 3.26407 | 55.15612 | 34859 ft | 457 kts | 174° |
| 2026-05-05 09:16 | 3.20047 | 55.16077 | 34859 ft | 457 kts | 174° |
| 2026-05-05 09:16 | 3.13698 | 55.16540 | 34860 ft | 457 kts | 174° |
| 2026-05-05 09:17 | 3.07344 | 55.17004 | 34859 ft | 457 kts | 174° |
| 2026-05-05 09:17 | 3.01003 | 55.17467 | 34860 ft | 458 kts | 174° |
| 2026-05-05 09:18 | 2.94638 | 55.17932 | 34863 ft | 458 kts | 174° |
| 2026-05-05 09:18 | 2.88336 | 55.18391 | 34852 ft | 457 kts | 174° |
| 2026-05-05 09:19 | 2.81984 | 55.18855 | 34868 ft | 459 kts | 174° |
| 2026-05-05 09:19 | 2.75625 | 55.19320 | 34862 ft | 457 kts | 174° |
| 2026-05-05 09:20 | 2.69271 | 55.19783 | 34862 ft | 458 kts | 174° |
| 2026-05-05 09:20 | 2.62921 | 55.20246 | 34862 ft | 458 kts | 174° |
| 2026-05-05 09:21 | 2.56561 | 55.20708 | 34860 ft | 455 kts | 174° |
| 2026-05-05 09:21 | 2.50339 | 55.21161 | 34862 ft | 443 kts | 174° |
| 2026-05-05 09:22 | 2.44227 | 55.21607 | 34863 ft | 444 kts | 174° |
| 2026-05-05 09:22 | 2.38058 | 55.22057 | 34863 ft | 444 kts | 174° |
| 2026-05-05 09:23 | 2.31889 | 55.22508 | 34864 ft | 445 kts | 174° |
| 2026-05-05 09:23 | 2.26761 | 55.22882 | 34864 ft | 444 kts | 174° |
| 2026-05-05 09:24 | 2.20588 | 55.23332 | 34864 ft | 444 kts | 174° |
| 2026-05-05 09:24 | 2.14414 | 55.23782 | 34865 ft | 444 kts | 174° |
| 2026-05-05 09:25 | 2.08244 | 55.24231 | 34865 ft | 444 kts | 174° |
| 2026-05-05 09:25 | 2.02076 | 55.24681 | 34874 ft | 444 kts | 174° |
| 2026-05-05 09:26 | 1.95908 | 55.25129 | 34888 ft | 444 kts | 174° |
| 2026-05-05 09:26 | 1.89794 | 55.25574 | 34889 ft | 444 kts | 174° |
| 2026-05-05 09:27 | 1.83680 | 55.26024 | 34920 ft | 444 kts | 174° |
| 2026-05-05 09:27 | 1.77446 | 55.26472 | 34891 ft | 448 kts | 174° |
| 2026-05-05 09:28 | 1.71235 | 55.26925 | 34889 ft | 447 kts | 174° |
| 2026-05-05 09:28 | 1.65021 | 55.27378 | 34888 ft | 448 kts | 174° |
| 2026-05-05 09:29 | 1.58841 | 55.27828 | 34888 ft | 447 kts | 174° |
| 2026-05-05 09:29 | 1.52619 | 55.28282 | 34888 ft | 447 kts | 174° |
| 2026-05-05 09:30 | 1.46416 | 55.28734 | 34888 ft | 447 kts | 174° |
| 2026-05-05 09:30 | 1.40209 | 55.29186 | 34888 ft | 447 kts | 174° |
| 2026-05-05 09:31 | 1.34039 | 55.29636 | 34888 ft | 447 kts | 174° |
| 2026-05-05 09:31 | 1.27820 | 55.30089 | 34888 ft | 447 kts | 174° |
| 2026-05-05 09:32 | 1.21614 | 55.30541 | 34888 ft | 447 kts | 174° |
| 2026-05-05 09:32 | 1.15411 | 55.30992 | 34892 ft | 447 kts | 174° |
| 2026-05-05 09:33 | 1.09242 | 55.31441 | 34896 ft | 447 kts | 174° |
| 2026-05-05 09:33 | 1.03042 | 55.31893 | 34896 ft | 447 kts | 174° |
| 2026-05-05 09:34 | 0.96839 | 55.32344 | 34896 ft | 446 kts | 174° |
| 2026-05-05 09:34 | 0.90638 | 55.32796 | 34896 ft | 447 kts | 174° |
| 2026-05-05 09:35 | 0.84435 | 55.33247 | 34896 ft | 446 kts | 174° |
| 2026-05-05 09:35 | 0.75140 | 55.33924 | 34895 ft | 446 kts | 174° |
| 2026-05-05 09:36 | 0.68983 | 55.34372 | 34895 ft | 446 kts | 174° |
| 2026-05-05 09:36 | 0.62785 | 55.34823 | 34895 ft | 446 kts | 174° |
| 2026-05-05 09:37 | 0.56590 | 55.35274 | 34894 ft | 446 kts | 174° |
| 2026-05-05 09:37 | 0.50416 | 55.35723 | 34901 ft | 446 kts | 174° |
| 2026-05-05 09:38 | 0.44209 | 55.36174 | 34895 ft | 446 kts | 174° |
| 2026-05-05 09:38 | 0.38014 | 55.36625 | 34894 ft | 445 kts | 174° |
| 2026-05-05 09:39 | 0.31823 | 55.37076 | 34893 ft | 446 kts | 174° |
| 2026-05-05 09:39 | 0.25634 | 55.37526 | 34893 ft | 446 kts | 174° |
| 2026-05-05 09:40 | 0.19440 | 55.37977 | 34893 ft | 446 kts | 174° |
| 2026-05-05 09:40 | 0.13294 | 55.38424 | 34893 ft | 446 kts | 174° |
| 2026-05-05 09:41 | 0.07090 | 55.38876 | 34892 ft | 446 kts | 174° |
| 2026-05-05 09:41 | 0.00910 | 55.39326 | 34892 ft | 446 kts | 174° |
| 2026-05-05 09:42 | -0.05282 | 55.39776 | 34892 ft | 445 kts | 174° |
| 2026-05-05 09:42 | -0.11427 | 55.40223 | 34891 ft | 445 kts | 174° |
| 2026-05-05 09:43 | -0.17606 | 55.40673 | 34891 ft | 445 kts | 174° |
| 2026-05-05 09:43 | -0.23779 | 55.41122 | 34891 ft | 445 kts | 174° |
| 2026-05-05 09:44 | -0.29960 | 55.41572 | 34891 ft | 445 kts | 174° |
| 2026-05-05 09:44 | -0.36134 | 55.42021 | 34890 ft | 445 kts | 174° |
| 2026-05-05 09:45 | -0.42312 | 55.42471 | 34890 ft | 445 kts | 174° |
| 2026-05-05 09:45 | -0.48495 | 55.42921 | 34890 ft | 445 kts | 174° |
| 2026-05-05 09:46 | -0.54668 | 55.43370 | 34889 ft | 445 kts | 174° |
| 2026-05-05 09:46 | -0.60843 | 55.43819 | 34889 ft | 445 kts | 174° |
| 2026-05-05 09:47 | -0.67023 | 55.44269 | 34889 ft | 444 kts | 174° |
| 2026-05-05 09:47 | -0.73153 | 55.44715 | 34889 ft | 444 kts | 174° |
| 2026-05-05 09:48 | -0.79320 | 55.45164 | 34888 ft | 444 kts | 174° |
| 2026-05-05 09:48 | -0.85492 | 55.45613 | 34888 ft | 444 kts | 174° |
| 2026-05-05 09:49 | -0.91653 | 55.46061 | 34887 ft | 444 kts | 174° |
| 2026-05-05 09:49 | -0.97813 | 55.46537 | 34887 ft | 444 kts | 173° |
| 2026-05-05 09:50 | -1.03960 | 55.47114 | 34887 ft | 443 kts | 172° |
| 2026-05-05 09:50 | -1.10064 | 55.47690 | 34887 ft | 443 kts | 172° |
| 2026-05-05 09:51 | -1.16206 | 55.48270 | 34886 ft | 443 kts | 172° |
| 2026-05-05 09:51 | -1.22351 | 55.48850 | 34886 ft | 443 kts | 172° |
| 2026-05-05 09:52 | -1.28485 | 55.49429 | 34886 ft | 443 kts | 172° |
| 2026-05-05 09:52 | -1.34627 | 55.50009 | 34885 ft | 443 kts | 172° |
| 2026-05-05 09:53 | -1.40765 | 55.50589 | 34885 ft | 443 kts | 172° |
| 2026-05-05 09:53 | -1.46908 | 55.51168 | 34885 ft | 443 kts | 172° |
| 2026-05-05 09:54 | -1.53000 | 55.51743 | 34884 ft | 443 kts | 172° |
| 2026-05-05 09:54 | -1.59135 | 55.52323 | 34878 ft | 443 kts | 172° |
| 2026-05-05 09:55 | -1.65267 | 55.52902 | 34878 ft | 443 kts | 172° |
| 2026-05-05 09:55 | -1.71405 | 55.53481 | 34878 ft | 442 kts | 172° |
| 2026-05-05 09:56 | -1.77535 | 55.54060 | 34877 ft | 442 kts | 172° |
| 2026-05-05 09:56 | -1.83666 | 55.54639 | 34877 ft | 442 kts | 172° |
| 2026-05-05 09:57 | -1.89804 | 55.55219 | 34877 ft | 443 kts | 173° |
| 2026-05-05 09:57 | -1.95939 | 55.55798 | 34877 ft | 443 kts | 173° |
| 2026-05-05 09:58 | -2.02080 | 55.56378 | 34877 ft | 443 kts | 173° |
| 2026-05-05 09:58 | -2.08216 | 55.56957 | 34877 ft | 443 kts | 173° |
| 2026-05-05 09:59 | -2.14350 | 55.57536 | 34877 ft | 443 kts | 173° |
| 2026-05-05 09:59 | -2.20454 | 55.58113 | 34877 ft | 443 kts | 173° |
| 2026-05-05 10:00 | -2.26583 | 55.58692 | 34877 ft | 443 kts | 173° |
| 2026-05-05 10:00 | -2.32719 | 55.59271 | 34876 ft | 442 kts | 173° |
| 2026-05-05 10:01 | -2.38846 | 55.59850 | 34876 ft | 442 kts | 172° |
| 2026-05-05 10:01 | -2.44983 | 55.60430 | 34876 ft | 442 kts | 172° |
| 2026-05-05 10:02 | -2.51125 | 55.61010 | 34876 ft | 442 kts | 172° |
| 2026-05-05 10:02 | -2.57213 | 55.61586 | 34876 ft | 442 kts | 172° |
| 2026-05-05 10:03 | -2.63344 | 55.62165 | 34876 ft | 443 kts | 172° |
| 2026-05-05 10:03 | -2.69479 | 55.62745 | 34876 ft | 443 kts | 172° |
| 2026-05-05 10:04 | -2.75657 | 55.63330 | 34548 ft | 449 kts | 172° |
| 2026-05-05 10:04 | -2.78759 | 55.63622 | 33652 ft | 449 kts | 172° |
| 2026-05-05 10:04 | -2.81885 | 55.63919 | 32496 ft | 455 kts | 173° |
| 2026-05-05 10:05 | -2.85035 | 55.64219 | 31767 ft | 451 kts | 173° |
| 2026-05-05 10:05 | -2.88142 | 55.64515 | 31119 ft | 445 kts | 173° |
| 2026-05-05 10:05 | -2.91210 | 55.64807 | 30380 ft | 442 kts | 173° |
| 2026-05-05 10:05 | -2.94246 | 55.65096 | 29890 ft | 434 kts | 174° |
| 2026-05-05 10:06 | -2.97199 | 55.65376 | 29735 ft | 418 kts | 174° |
| 2026-05-05 10:06 | -3.00043 | 55.65645 | 29655 ft | 402 kts | 174° |
| 2026-05-05 10:06 | -3.02780 | 55.65903 | 29517 ft | 389 kts | 174° |
| 2026-05-05 10:06 | -3.05468 | 55.66155 | 28932 ft | 388 kts | 174° |
| 2026-05-05 10:07 | -3.08158 | 55.66408 | 28428 ft | 387 kts | 174° |
| 2026-05-05 10:07 | -3.10830 | 55.66660 | 27957 ft | 384 kts | 174° |
| 2026-05-05 10:07 | -3.13478 | 55.66910 | 27490 ft | 381 kts | 174° |
| 2026-05-05 10:07 | -3.16114 | 55.67157 | 27053 ft | 378 kts | 174° |
| 2026-05-05 10:08 | -3.18693 | 55.67400 | 26601 ft | 376 kts | 174° |
| 2026-05-05 10:08 | -3.21304 | 55.67648 | 26135 ft | 375 kts | 174° |
| 2026-05-05 10:08 | -3.23891 | 55.67893 | 25686 ft | 373 kts | 174° |
| 2026-05-05 10:08 | -3.26471 | 55.68136 | 25260 ft | 370 kts | 174° |
| 2026-05-05 10:09 | -3.29027 | 55.68378 | 24831 ft | 368 kts | 174° |
| 2026-05-05 10:09 | -3.31569 | 55.68619 | 24345 ft | 368 kts | 175° |
| 2026-05-05 10:09 | -3.34114 | 55.68860 | 23881 ft | 366 kts | 174° |
| 2026-05-05 10:09 | -3.36635 | 55.69100 | 23522 ft | 360 kts | 175° |
| 2026-05-05 10:10 | -3.38290 | 55.69256 | 23166 ft | 360 kts | 175° |
| 2026-05-05 10:10 | -3.40780 | 55.69493 | 22590 ft | 357 kts | 175° |
| 2026-05-05 10:10 | -3.43258 | 55.69726 | 22325 ft | 357 kts | 175° |
| 2026-05-05 10:10 | -3.45719 | 55.69959 | 21949 ft | 350 kts | 175° |
| 2026-05-05 10:11 | -3.48133 | 55.70188 | 21397 ft | 348 kts | 175° |
| 2026-05-05 10:11 | -3.51062 | 55.70470 | 20510 ft | 352 kts | 175° |
| 2026-05-05 10:11 | -3.52720 | 55.70626 | 20023 ft | 357 kts | 175° |
| 2026-05-05 10:11 | -3.55215 | 55.70862 | 19275 ft | 362 kts | 175° |
| 2026-05-05 10:12 | -3.57740 | 55.71101 | 18525 ft | 367 kts | 176° |
| 2026-05-05 10:12 | -3.60293 | 55.71342 | 17764 ft | 370 kts | 176° |
| 2026-05-05 10:12 | -3.62868 | 55.71583 | 17020 ft | 373 kts | 176° |
| 2026-05-05 10:12 | -3.65415 | 55.71822 | 16280 ft | 375 kts | 176° |
| 2026-05-05 10:13 | -3.68032 | 55.72070 | 15528 ft | 377 kts | 176° |
| 2026-05-05 10:13 | -3.70669 | 55.72321 | 14769 ft | 376 kts | 176° |
| 2026-05-05 10:13 | -3.73282 | 55.72569 | 14016 ft | 376 kts | 176° |
| 2026-05-05 10:13 | -3.75882 | 55.72815 | 13266 ft | 376 kts | 176° |
| 2026-05-05 10:14 | -3.78487 | 55.73063 | 12514 ft | 375 kts | 176° |
| 2026-05-05 10:14 | -3.81050 | 55.73306 | 11771 ft | 374 kts | 176° |
| 2026-05-05 10:14 | -3.83637 | 55.73551 | 11021 ft | 373 kts | 176° |
| 2026-05-05 10:14 | -3.86222 | 55.73795 | 10269 ft | 372 kts | 175° |
| 2026-05-05 10:15 | -3.88788 | 55.74038 | 9507 ft | 369 kts | 175° |
| 2026-05-05 10:15 | -3.91329 | 55.74279 | 8772 ft | 367 kts | 175° |
| 2026-05-05 10:15 | -3.93868 | 55.74520 | 7991 ft | 363 kts | 175° |
| 2026-05-05 10:15 | -3.96377 | 55.74758 | 7251 ft | 361 kts | 175° |
| 2026-05-05 10:16 | -3.98860 | 55.74993 | 6524 ft | 357 kts | 175° |
| 2026-05-05 10:16 | -4.01355 | 55.75229 | 5784 ft | 364 kts | 175° |
| 2026-05-05 10:16 | -4.03359 | 55.75418 | 5164 ft | 366 kts | 175° |
| 2026-05-05 10:16 | -4.05943 | 55.75667 | 4423 ft | 360 kts | 175° |
| 2026-05-05 10:17 | -4.08409 | 55.75900 | 4103 ft | 345 kts | 175° |
| 2026-05-05 10:17 | -4.10731 | 55.76120 | 4026 ft | 324 kts | 175° |
| 2026-05-05 10:17 | -4.12808 | 55.76318 | 4015 ft | 310 kts | 175° |
| 2026-05-05 10:17 | -4.14914 | 55.76517 | 4009 ft | 300 kts | 175° |
| 2026-05-05 10:18 | -4.16963 | 55.76712 | 4001 ft | 287 kts | 175° |
| 2026-05-05 10:18 | -4.18916 | 55.76896 | 3994 ft | 278 kts | 175° |
| 2026-05-05 10:18 | -4.20815 | 55.77072 | 3989 ft | 269 kts | 176° |
| 2026-05-05 10:18 | -4.22634 | 55.76892 | 3987 ft | 261 kts | 196° |
| 2026-05-05 10:19 | -4.24225 | 55.76075 | 3990 ft | 255 kts | 218° |
| 2026-05-05 10:19 | -4.25377 | 55.74743 | 3999 ft | 255 kts | 236° |
| 2026-05-05 10:19 | -4.26348 | 55.73251 | 4000 ft | 254 kts | 238° |
| 2026-05-05 10:19 | -4.27293 | 55.71743 | 4001 ft | 255 kts | 238° |
| 2026-05-05 10:20 | -4.28216 | 55.70241 | 4000 ft | 252 kts | 239° |
| 2026-05-05 10:20 | -4.29127 | 55.68742 | 4003 ft | 253 kts | 239° |
| 2026-05-05 10:20 | -4.30043 | 55.67219 | 4004 ft | 257 kts | 239° |
| 2026-05-05 10:20 | -4.30962 | 55.65687 | 3995 ft | 256 kts | 239° |
| 2026-05-05 10:21 | -4.31871 | 55.64165 | 4000 ft | 255 kts | 239° |
| 2026-05-05 10:21 | -4.32776 | 55.62647 | 3998 ft | 252 kts | 239° |
| 2026-05-05 10:21 | -4.33662 | 55.61161 | 3989 ft | 253 kts | 239° |
| 2026-05-05 10:21 | -4.34558 | 55.59655 | 4004 ft | 254 kts | 239° |
| 2026-05-05 10:22 | -4.35464 | 55.58134 | 4001 ft | 253 kts | 239° |
| 2026-05-05 10:22 | -4.36362 | 55.56625 | 3994 ft | 253 kts | 239° |
| 2026-05-05 10:22 | -4.37268 | 55.55101 | 4002 ft | 256 kts | 239° |
| 2026-05-05 10:22 | -4.38181 | 55.53566 | 3997 ft | 258 kts | 239° |
| 2026-05-05 10:23 | -4.38797 | 55.52532 | 3996 ft | 259 kts | 239° |
| 2026-05-05 10:23 | -4.39718 | 55.50982 | 3971 ft | 256 kts | 239° |
| 2026-05-05 10:23 | -4.40616 | 55.49471 | 3963 ft | 249 kts | 239° |
| 2026-05-05 10:23 | -4.41514 | 55.47975 | 4000 ft | 251 kts | 237° |
| 2026-05-05 10:24 | -4.42588 | 55.46594 | 3835 ft | 244 kts | 226° |
| 2026-05-05 10:24 | -4.43851 | 55.45524 | 3295 ft | 234 kts | 216° |
| 2026-05-05 10:24 | -4.45147 | 55.44619 | 3052 ft | 221 kts | 215° |
| 2026-05-05 10:24 | -4.46402 | 55.43751 | 3023 ft | 218 kts | 214° |
| 2026-05-05 10:25 | -4.47666 | 55.42887 | 3004 ft | 220 kts | 214° |
| 2026-05-05 10:25 | -4.48936 | 55.42027 | 2992 ft | 218 kts | 214° |
| 2026-05-05 10:25 | -4.50213 | 55.41165 | 3043 ft | 222 kts | 214° |
| 2026-05-05 10:25 | -4.51517 | 55.40337 | 3046 ft | 219 kts | 207° |
| 2026-05-05 10:26 | -4.52941 | 55.39947 | 2924 ft | 212 kts | 185° |
| 2026-05-05 10:26 | -4.54360 | 55.40142 | 2897 ft | 202 kts | 163° |
| 2026-05-05 10:26 | -4.55534 | 55.40812 | 2885 ft | 191 kts | 143° |
| 2026-05-05 10:26 | -4.56531 | 55.41666 | 2892 ft | 184 kts | 139° |
| 2026-05-05 10:27 | -4.57457 | 55.42488 | 2902 ft | 172 kts | 139° |
| 2026-05-05 10:27 | -4.58333 | 55.43277 | 2855 ft | 173 kts | 138° |
| 2026-05-05 10:27 | -4.59254 | 55.44125 | 2297 ft | 181 kts | 138° |
| 2026-05-05 10:27 | -4.60178 | 55.44948 | 1960 ft | 174 kts | 142° |
| 2026-05-05 10:28 | -4.61140 | 55.45672 | 1328 ft | 170 kts | 144° |
| 2026-05-05 10:28 | -4.62038 | 55.46300 | 1145 ft | 150 kts | 146° |
| 2026-05-05 10:28 | -4.62909 | 55.46857 | 987 ft | 144 kts | 149° |
| 2026-05-05 10:28 | -4.63719 | 55.47426 | 843 ft | 143 kts | 142° |
| 2026-05-05 10:29 | -4.64471 | 55.48076 | 608 ft | 143 kts | 136° |
| 2026-05-05 10:29 | -4.65109 | 55.48834 | 432 ft | 142 kts | 130° |
| 2026-05-05 10:29 | -4.65687 | 55.49633 | 335 ft | 144 kts | 126° |
| 2026-05-05 10:29 | -4.66247 | 55.50460 | 149 ft | 141 kts | 128° |
| 2026-05-05 10:30 | -4.66812 | 55.51266 | 56 ft | 142 kts | 127° |
| 2026-05-05 10:30 | -4.67331 | 55.52005 | 25 ft | 99 kts | 125° |
| 2026-05-05 10:30 | -4.67620 | 55.52423 | 25 ft | 41 kts | 125° |
| 2026-05-05 10:30 | -4.67751 | 55.52620 | 25 ft | 32 kts | 124° |
| 2026-05-05 10:31 | -4.67881 | 55.52803 | 25 ft | 33 kts | 126° |
| 2026-05-05 10:31 | -4.68014 | 55.52986 | 25 ft | 32 kts | 124° |
| 2026-05-05 10:31 | -4.68123 | 55.53138 | 25 ft | 21 kts | 141° |
| 2026-05-05 10:31 | -4.68245 | 55.53168 | 25 ft | 17 kts | 158° |
| 2026-05-05 10:32 | -4.68238 | 55.53251 | 25 ft | 16 kts | 22° |
| 2026-05-05 10:32 | -4.68138 | 55.53182 | 25 ft | 32 kts | 304° |
| 2026-05-05 10:32 | -4.68008 | 55.52989 | 25 ft | 33 kts | 303° |
| 2026-05-05 10:32 | -4.67885 | 55.52797 | 25 ft | 32 kts | 308° |
| 2026-05-05 10:33 | -4.67751 | 55.52623 | 25 ft | 31 kts | 306° |
| 2026-05-05 10:33 | -4.67631 | 55.52450 | 25 ft | 31 kts | 305° |
| 2026-05-05 10:33 | -4.67508 | 55.52267 | 25 ft | 31 kts | 302° |
| 2026-05-05 10:33 | -4.67380 | 55.52086 | 25 ft | 33 kts | 304° |
| 2026-05-05 10:34 | -4.67252 | 55.51899 | 25 ft | 32 kts | 304° |
| 2026-05-05 10:34 | -4.67125 | 55.51716 | 25 ft | 31 kts | 304° |
| 2026-05-05 10:34 | -4.67009 | 55.51549 | 25 ft | 25 kts | 304° |
| 2026-05-05 10:34 | -4.66922 | 55.51419 | 25 ft | 18 kts | 304° |
| 2026-05-05 10:35 | -4.66949 | 55.51331 | 25 ft | 13 kts | 213° |
| 2026-05-05 10:35 | -4.67021 | 55.51281 | 25 ft | 12 kts | 226° |
| 2026-05-05 10:35 | -4.67073 | 55.51229 | 25 ft | 6 kts | 214° |
| 2026-05-05 10:35 | -4.67086 | 55.51220 | 25 ft | 0 kts | 214° |